Ermak — UINH — position and weather

sailwx.info

Track history (hours):
 
Tides and Currents Weather Stations Pressure Air Temp Water Temp Dewpoint Dewpoint Depression Visibility Wind Speed Wind Dir Waves Ship Positions

Ermak

Last reported at 2017-Feb-20 13:33 UTC. Time now 2017-Feb-20 13:57 UTC.
Position N 60°17' E 028°45'.

Length 135 m; draft 9.2 m.

Type: Other ship. MMSI: 273142300.

Date/timePositionNaut miles runAvg speedWind from/ knotsBaromVisibWave heightAir tempDewpointWater temp
2017-Feb-20 13:33N 60°17' E 028°45'2 0.7
2017-Feb-20 11:22N 60°19' E 028°44'1 0.6
2017-Feb-20 10:32N 60°19' E 028°43'9 8.4
2017-Feb-20 09:29N 60°11' E 028°43'8 8.5
2017-Feb-20 08:33N 60°07' E 028°29'5 4.7
2017-Feb-20 07:33N 60°09' E 028°37'7 6.6
2017-Feb-20 06:33N 60°14' E 028°46'4 3.8
2017-Feb-20 05:33N 60°18' E 028°45'1 0.6
2017-Feb-20 04:33N 60°17' E 028°46'6 5.5
2017-Feb-20 03:32N 60°11' E 028°44'7 6.9
2017-Feb-20 02:33N 60°08' E 028°33'5 4.8
2017-Feb-20 01:34N 60°06' E 028°24'9 9.1
2017-Feb-20 00:32N 60°10' E 028°41'2 1.7
2017-Feb-19 23:33N 60°11' E 028°43'2 2.1
2017-Feb-19 22:29N 60°13' E 028°46'1 1.0
2017-Feb-19 21:33N 60°12' E 028°44'5 3.8
2017-Feb-19 20:21N 60°17' E 028°46'4 5.1
2017-Feb-19 19:29N 60°13' E 028°46'1 1.2
2017-Feb-19 18:19N 60°14' E 028°47'1 1.6
2017-Feb-19 17:33N 60°15' E 028°47'2 2.2
2017-Feb-19 16:33N 60°17' E 028°45'2 1.4
2017-Feb-19 15:16N 60°15' E 028°47'5 6.1
2017-Feb-19 14:31N 60°11' E 028°44'7 7.1
2017-Feb-19 13:34N 60°08' E 028°32'7 7.3
2017-Feb-19 12:33N 60°08' E 028°17'1 0.8
2017-Feb-19 11:33N 60°07' E 028°18'8 7.8
2017-Feb-19 10:32N 60°09' E 028°34'6 6.3
2017-Feb-19 09:33N 60°12' E 028°45'6 2.9
2017-Feb-19 07:33N 60°18' E 028°44'2 1.8
2017-Feb-19 06:33N 60°17' E 028°47'1 0.7
2017-Feb-19 05:26N 60°16' E 028°48'5 2.3
2017-Feb-19 03:09N 60°11' E 028°44'4 6.2
2017-Feb-19 02:33N 60°09' E 028°37'8 8.5
2017-Feb-19 01:33N 60°05' E 028°22'6 6.2
2017-Feb-19 00:33N 60°08' E 028°12'9 8.6
2017-Feb-18 23:33N 60°07' E 028°29'7 7.2
2017-Feb-18 22:33N 60°11' E 028°41'1 1.0
2017-Feb-18 21:34N 60°10' E 028°40'3 3.0
2017-Feb-18 20:27N 60°12' E 028°45'3 3.4
2017-Feb-18 19:33N 60°15' E 028°47'2 1.7
2017-Feb-18 18:13N 60°13' E 028°46'1 1.6
2017-Feb-18 17:17N 60°14' E 028°47'2 2.8
2017-Feb-18 16:32N 60°16' E 028°47'4 4.1
2017-Feb-18 15:33N 60°20' E 028°43'1 0.5
2017-Feb-18 14:31N 60°19' E 028°42'0 0.0
2017-Feb-18 13:31N 60°19' E 028°42'0 0.0
2017-Feb-18 12:30N 60°19' E 028°42'0 0.0
2017-Feb-18 11:33N 60°19' E 028°42'0 0.0
2017-Feb-18 10:33N 60°19' E 028°42'0 0.0
2017-Feb-18 09:30N 60°19' E 028°42'0 0.0
2017-Feb-18 08:31N 60°19' E 028°42'0 0.0
2017-Feb-18 07:33N 60°19' E 028°42'0 0.0
2017-Feb-18 06:32N 60°19' E 028°42'0 0.0
2017-Feb-18 05:33N 60°19' E 028°42'5 4.8
2017-Feb-18 04:33N 60°15' E 028°48'4 1.9
2017-Feb-18 02:33N 60°12' E 028°45'8 8.2
2017-Feb-18 01:33N 60°07' E 028°31'1 1.0
2017-Feb-18 00:33N 60°07' E 028°30'8 8.3
2017-Feb-17 23:33N 60°11' E 028°44'1 0.7
2017-Feb-17 22:32N 60°11' E 028°43'1111.0
2017-Feb-17 21:33N 60°05' E 028°24'6 6.3
2017-Feb-17 20:33N 60°08' E 028°35'1 1.4
2017-Feb-17 19:33N 60°08' E 028°33'1 1.3
2017-Feb-17 18:33N 60°07' E 028°30'0 0.1
2017-Feb-17 17:33N 60°07' E 028°30'0 0.1
2017-Feb-17 16:33N 60°07' E 028°30'0 0.0
2017-Feb-17 15:33N 60°07' E 028°30'0 0.0
2017-Feb-17 14:33N 60°07' E 028°30'4 4.4
2017-Feb-17 13:33N 60°09' E 028°38'4 3.9
2017-Feb-17 12:33N 60°11' E 028°44'0 0.3
2017-Feb-17 11:12N 60°12' E 028°45'3 5.1
2017-Feb-17 10:34N 60°10' E 028°40'6 5.7
2017-Feb-17 09:33N 60°07' E 028°29'0 0.0
2017-Feb-17 08:33N 60°07' E 028°29'0 0.0
2017-Feb-17 07:33N 60°07' E 028°29'0 0.0
2017-Feb-17 06:33N 60°07' E 028°29'0 0.0
2017-Feb-17 05:33N 60°07' E 028°29'0 0.0
2017-Feb-17 04:33N 60°07' E 028°29'0 0.0
2017-Feb-17 03:33N 60°07' E 028°29'0 0.0
2017-Feb-17 02:33N 60°07' E 028°29'0 0.0
2017-Feb-17 01:33N 60°07' E 028°29'0 0.0
2017-Feb-17 00:33N 60°07' E 028°29'0 0.0
2017-Feb-16 23:33N 60°07' E 028°29'0 0.0
2017-Feb-16 22:33N 60°07' E 028°29'3 2.5
2017-Feb-16 21:33N 60°08' E 028°34'8 7.2
2017-Feb-16 20:29N 60°13' E 028°46'7 3.0
2017-Feb-16 18:15N 60°19' E 028°42'11 6.3
2017-Feb-16 16:33N 60°09' E 028°37'1 0.6
2017-Feb-16 15:33N 60°09' E 028°36'0 0.0
2017-Feb-16 14:33N 60°09' E 028°36'6 5.7
2017-Feb-16 13:33N 60°12' E 028°45'5 5.1
2017-Feb-16 12:32N 60°17' E 028°45'7 6.8
2017-Feb-16 11:31N 60°11' E 028°42'5 5.4
2017-Feb-16 10:33N 60°08' E 028°33'0 0.0
2017-Feb-16 09:33N 60°08' E 028°33'0 0.0
2017-Feb-16 08:33N 60°08' E 028°33'0 0.0
2017-Feb-16 07:33N 60°08' E 028°33'0 0.0
2017-Feb-16 06:33N 60°08' E 028°33'0 0.0
2017-Feb-16 05:33N 60°08' E 028°33'0 0.0
2017-Feb-16 04:29N 60°08' E 028°33'4 3.9
2017-Feb-16 03:33N 60°06' E 028°27'8 7.6
2017-Feb-16 02:33N 60°10' E 028°40'1 0.6
2017-Feb-16 01:33N 60°10' E 028°42'5 4.8
2017-Feb-16 00:33N 60°08' E 028°33'3 3.4
2017-Feb-15 23:33N 60°11' E 028°37'0 0.1
2017-Feb-15 22:33N 60°11' E 028°37'0 0.1
2017-Feb-15 21:33N 60°11' E 028°37'0 0.1
2017-Feb-15 20:33N 60°10' E 028°37'0 0.1
2017-Feb-15 19:33N 60°10' E 028°38'0 0.1
2017-Feb-15 18:33N 60°10' E 028°38'0 0.1
2017-Feb-15 17:30N 60°10' E 028°38'0 0.1
2017-Feb-15 15:32N 60°10' E 028°38'0 0.1
2017-Feb-15 14:32N 60°10' E 028°38'0 0.1
2017-Feb-15 13:08N 60°10' E 028°38'0 0.0
2017-Feb-15 12:28N 60°10' E 028°38'0 0.0
2017-Feb-14 22:09N 60°10' E 028°39'2 3.3
2017-Feb-14 21:33N 60°10' E 028°42'4 3.9
2017-Feb-14 20:33N 60°09' E 028°36'2 2.3
2017-Feb-14 19:33N 60°10' E 028°39'0 0.0
2017-Feb-14 18:33N 60°10' E 028°39'0 0.0
2017-Feb-14 17:33N 60°10' E 028°39'0 0.0
2017-Feb-14 16:33N 60°10' E 028°39'0 0.0
2017-Feb-14 15:33N 60°10' E 028°39'4 4.4
2017-Feb-14 14:33N 60°08' E 028°31'8 6.8
2017-Feb-14 13:19N 60°13' E 028°46'5 6.4
2017-Feb-14 12:33N 60°17' E 028°45'0 0.0
2017-Feb-14 04:33N 60°17' E 028°45'9 9.1
2017-Feb-14 03:33N 60°10' E 028°36'7 7.2
2017-Feb-14 02:33N 60°07' E 028°22'8 8.0
2017-Feb-14 01:33N 60°10' E 028°38'6 5.9
2017-Feb-14 00:33N 60°14' E 028°46'1 1.4
2017-Feb-13 23:33N 60°15' E 028°47'13 6.4
2017-Feb-13 21:33N 60°08' E 028°26'3 2.7
2017-Feb-13 20:33N 60°09' E 028°31'6 5.8
2017-Feb-13 19:33N 60°11' E 028°42'7 7.2
2017-Feb-13 18:33N 60°18' E 028°44'7 6.4
2017-Feb-13 17:29N 60°11' E 028°43'1 1.5
2017-Feb-13 16:33N 60°10' E 028°41'6 5.7
2017-Feb-13 15:32N 60°15' E 028°47'3 3.5
2017-Feb-13 14:33N 60°18' E 028°44'7 7.3
2017-Feb-13 13:32N 60°11' E 028°44'6 6.2
2017-Feb-13 12:33N 60°09' E 028°32'1010.1
2017-Feb-13 11:33N 60°08' E 028°12'1010.5
2017-Feb-13 10:33N 60°09' E 028°33'5 5.3
2017-Feb-13 09:33N 60°11' E 028°43'8 7.4
2017-Feb-13 08:32N 60°18' E 028°44'2 1.9
2017-Feb-13 07:33N 60°17' E 028°46'2 0.4
2017-Feb-13 03:32N 60°18' E 028°44'9 9.1
2017-Feb-13 02:33N 60°10' E 028°38'1211.9
2017-Feb-13 01:33N 60°08' E 028°14'9 9.1
2017-Feb-13 00:33N 60°10' E 027°57'0 0.4
2017-Feb-12 23:33N 60°10' E 027°57'6 5.9
2017-Feb-12 22:33N 60°09' E 028°09'7 7.3
2017-Feb-12 21:33N 60°06' E 028°22'4 4.5
2017-Feb-12 20:34N 60°08' E 028°15'8 8.5
2017-Feb-12 19:34N 60°08' E 028°32'8 7.7
2017-Feb-12 18:33N 60°12' E 028°45'7 7.4
2017-Feb-12 17:33N 60°09' E 028°32'8 8.5
2017-Feb-12 16:33N 60°07' E 028°16'1515.2
2017-Feb-12 15:33N 60°11' E 028°45'0 0.3
2017-Feb-12 14:30N 60°11' E 028°44'0 0.2
2017-Feb-12 13:33N 60°11' E 028°44'0 0.2
2017-Feb-12 12:34N 60°11' E 028°44'0 0.5
2017-Feb-12 11:31N 60°11' E 028°44'1010.7
2017-Feb-12 10:33N 60°08' E 028°25'4 3.9
2017-Feb-12 09:33N 60°09' E 028°17'0 0.1
2017-Feb-12 08:28N 60°09' E 028°17'0 0.1
2017-Feb-12 07:31N 60°09' E 028°17'2 2.5
2017-Feb-12 06:33N 60°07' E 028°20'10 9.6
2017-Feb-12 05:33N 60°10' E 028°39'3 2.6
2017-Feb-12 04:33N 60°11' E 028°43'2 1.6
2017-Feb-12 03:33N 60°10' E 028°41'8 7.8
2017-Feb-12 02:33N 60°08' E 028°26'8 7.8
2017-Feb-12 01:33N 60°09' E 028°10'9 8.7
2017-Feb-12 00:33N 60°08' E 028°27'7 7.3
2017-Feb-11 23:33N 60°10' E 028°41'10 9.8
2017-Feb-11 22:33N 60°08' E 028°22'1 0.7
2017-Feb-11 21:33N 60°07' E 028°21'4 4.5
2017-Feb-11 20:33N 60°09' E 028°30'4 3.7
2017-Feb-11 19:33N 60°09' E 028°37'4 4.0
2017-Feb-11 18:33N 60°11' E 028°44'7 7.3
2017-Feb-11 17:34N 60°09' E 028°30'6 6.4
2017-Feb-11 16:33N 60°08' E 028°17'1211.7
2017-Feb-11 15:33N 60°09' E 028°40'3 3.5
2017-Feb-11 14:33N 60°10' E 028°47'0 0.4
2017-Feb-11 13:27N 60°11' E 028°46'0 0.4
2017-Feb-11 12:32N 60°11' E 028°45'0 0.3
2017-Feb-11 11:32N 60°11' E 028°45'4 4.2
2017-Feb-11 10:33N 60°10' E 028°37'1110.8
2017-Feb-11 09:33N 60°07' E 028°16'1110.7
2017-Feb-11 08:33N 60°10' E 028°37'4 4.0
2017-Feb-11 07:33N 60°11' E 028°45'0 0.0
2017-Feb-11 06:33N 60°11' E 028°45'0 0.0
2017-Feb-11 05:33N 60°11' E 028°45'0 0.0
2017-Feb-11 04:33N 60°11' E 028°45'0 0.0
2017-Feb-11 03:33N 60°11' E 028°45'0 0.0
2017-Feb-11 02:33N 60°11' E 028°45'0 0.0
2017-Feb-11 01:32N 60°11' E 028°45'0 0.0
2017-Feb-11 00:33N 60°11' E 028°45'0 0.0
2017-Feb-10 23:33N 60°11' E 028°45'0 0.0
2017-Feb-10 22:33N 60°11' E 028°45'0 0.0
2017-Feb-10 21:30N 60°11' E 028°45'0 0.0
2017-Feb-10 20:30N 60°11' E 028°45'0 0.0
2017-Feb-10 19:33N 60°11' E 028°45'0 0.0
2017-Feb-10 18:33N 60°11' E 028°45'1 1.4
2017-Feb-10 17:33N 60°11' E 028°42'6 6.5
2017-Feb-10 16:33N 60°09' E 028°29'1 1.1
2017-Feb-10 15:33N 60°08' E 028°27'8 7.8
2017-Feb-10 14:33N 60°11' E 028°42'0 0.1
2017-Feb-10 13:33N 60°11' E 028°42'  
Track history (hours):
 
Tides and Currents Weather Stations Pressure Air Temp Water Temp Dewpoint Dewpoint Depression Visibility Wind Speed Wind Dir Waves Ship Positions

Ermak

Last reported at 2017-Feb-20 13:33 UTC. Time now 2017-Feb-20 13:57 UTC.
Position N 60°17' E 028°45'.

Length 135 m; draft 9.2 m.

Type: Other ship. MMSI: 273142300.

Date/timePositionNaut miles runAvg speedWind from/ knotsBaromVisibWave heightAir tempDewpointWater temp
2017-Feb-20 13:33N 60°17' E 028°45'2 0.7
2017-Feb-20 11:22N 60°19' E 028°44'1 0.6
2017-Feb-20 10:32N 60°19' E 028°43'9 8.4
2017-Feb-20 09:29N 60°11' E 028°43'8 8.5
2017-Feb-20 08:33N 60°07' E 028°29'5 4.7
2017-Feb-20 07:33N 60°09' E 028°37'7 6.6
2017-Feb-20 06:33N 60°14' E 028°46'4 3.8
2017-Feb-20 05:33N 60°18' E 028°45'1 0.6
2017-Feb-20 04:33N 60°17' E 028°46'6 5.5
2017-Feb-20 03:32N 60°11' E 028°44'7 6.9
2017-Feb-20 02:33N 60°08' E 028°33'5 4.8
2017-Feb-20 01:34N 60°06' E 028°24'9 9.1
2017-Feb-20 00:32N 60°10' E 028°41'2 1.7
2017-Feb-19 23:33N 60°11' E 028°43'2 2.1
2017-Feb-19 22:29N 60°13' E 028°46'1 1.0
2017-Feb-19 21:33N 60°12' E 028°44'5 3.8
2017-Feb-19 20:21N 60°17' E 028°46'4 5.1
2017-Feb-19 19:29N 60°13' E 028°46'1 1.2
2017-Feb-19 18:19N 60°14' E 028°47'1 1.6
2017-Feb-19 17:33N 60°15' E 028°47'2 2.2
2017-Feb-19 16:33N 60°17' E 028°45'2 1.4
2017-Feb-19 15:16N 60°15' E 028°47'5 6.1
2017-Feb-19 14:31N 60°11' E 028°44'7 7.1
2017-Feb-19 13:34N 60°08' E 028°32'7 7.3
2017-Feb-19 12:33N 60°08' E 028°17'1 0.8
2017-Feb-19 11:33N 60°07' E 028°18'8 7.8
2017-Feb-19 10:32N 60°09' E 028°34'6 6.3
2017-Feb-19 09:33N 60°12' E 028°45'6 2.9
2017-Feb-19 07:33N 60°18' E 028°44'2 1.8
2017-Feb-19 06:33N 60°17' E 028°47'1 0.7
2017-Feb-19 05:26N 60°16' E 028°48'5 2.3
2017-Feb-19 03:09N 60°11' E 028°44'4 6.2
2017-Feb-19 02:33N 60°09' E 028°37'8 8.5
2017-Feb-19 01:33N 60°05' E 028°22'6 6.2
2017-Feb-19 00:33N 60°08' E 028°12'9 8.6
2017-Feb-18 23:33N 60°07' E 028°29'7 7.2
2017-Feb-18 22:33N 60°11' E 028°41'1 1.0
2017-Feb-18 21:34N 60°10' E 028°40'3 3.0
2017-Feb-18 20:27N 60°12' E 028°45'3 3.4
2017-Feb-18 19:33N 60°15' E 028°47'2 1.7
2017-Feb-18 18:13N 60°13' E 028°46'1 1.6
2017-Feb-18 17:17N 60°14' E 028°47'2 2.8
2017-Feb-18 16:32N 60°16' E 028°47'4 4.1
2017-Feb-18 15:33N 60°20' E 028°43'1 0.5
2017-Feb-18 14:31N 60°19' E 028°42'0 0.0
2017-Feb-18 13:31N 60°19' E 028°42'0 0.0
2017-Feb-18 12:30N 60°19' E 028°42'0 0.0
2017-Feb-18 11:33N 60°19' E 028°42'0 0.0
2017-Feb-18 10:33N 60°19' E 028°42'0 0.0
2017-Feb-18 09:30N 60°19' E 028°42'0 0.0
2017-Feb-18 08:31N 60°19' E 028°42'0 0.0
2017-Feb-18 07:33N 60°19' E 028°42'0 0.0
2017-Feb-18 06:32N 60°19' E 028°42'0 0.0
2017-Feb-18 05:33N 60°19' E 028°42'5 4.8
2017-Feb-18 04:33N 60°15' E 028°48'4 1.9
2017-Feb-18 02:33N 60°12' E 028°45'8 8.2
2017-Feb-18 01:33N 60°07' E 028°31'1 1.0
2017-Feb-18 00:33N 60°07' E 028°30'8 8.3
2017-Feb-17 23:33N 60°11' E 028°44'1 0.7
2017-Feb-17 22:32N 60°11' E 028°43'1111.0
2017-Feb-17 21:33N 60°05' E 028°24'6 6.3
2017-Feb-17 20:33N 60°08' E 028°35'1 1.4
2017-Feb-17 19:33N 60°08' E 028°33'1 1.3
2017-Feb-17 18:33N 60°07' E 028°30'0 0.1
2017-Feb-17 17:33N 60°07' E 028°30'0 0.1
2017-Feb-17 16:33N 60°07' E 028°30'0 0.0
2017-Feb-17 15:33N 60°07' E 028°30'0 0.0
2017-Feb-17 14:33N 60°07' E 028°30'4 4.4
2017-Feb-17 13:33N 60°09' E 028°38'4 3.9
2017-Feb-17 12:33N 60°11' E 028°44'0 0.3
2017-Feb-17 11:12N 60°12' E 028°45'3 5.1
2017-Feb-17 10:34N 60°10' E 028°40'6 5.7
2017-Feb-17 09:33N 60°07' E 028°29'0 0.0
2017-Feb-17 08:33N 60°07' E 028°29'0 0.0
2017-Feb-17 07:33N 60°07' E 028°29'0 0.0
2017-Feb-17 06:33N 60°07' E 028°29'0 0.0
2017-Feb-17 05:33N 60°07' E 028°29'0 0.0
2017-Feb-17 04:33N 60°07' E 028°29'0 0.0
2017-Feb-17 03:33N 60°07' E 028°29'0 0.0
2017-Feb-17 02:33N 60°07' E 028°29'0 0.0
2017-Feb-17 01:33N 60°07' E 028°29'0 0.0
2017-Feb-17 00:33N 60°07' E 028°29'0 0.0
2017-Feb-16 23:33N 60°07' E 028°29'0 0.0
2017-Feb-16 22:33N 60°07' E 028°29'3 2.5
2017-Feb-16 21:33N 60°08' E 028°34'8 7.2
2017-Feb-16 20:29N 60°13' E 028°46'7 3.0
2017-Feb-16 18:15N 60°19' E 028°42'11 6.3
2017-Feb-16 16:33N 60°09' E 028°37'1 0.6
2017-Feb-16 15:33N 60°09' E 028°36'0 0.0
2017-Feb-16 14:33N 60°09' E 028°36'6 5.7
2017-Feb-16 13:33N 60°12' E 028°45'5 5.1
2017-Feb-16 12:32N 60°17' E 028°45'7 6.8
2017-Feb-16 11:31N 60°11' E 028°42'5 5.4
2017-Feb-16 10:33N 60°08' E 028°33'0 0.0
2017-Feb-16 09:33N 60°08' E 028°33'0 0.0
2017-Feb-16 08:33N 60°08' E 028°33'0 0.0
2017-Feb-16 07:33N 60°08' E 028°33'0 0.0
2017-Feb-16 06:33N 60°08' E 028°33'0 0.0
2017-Feb-16 05:33N 60°08' E 028°33'0 0.0
2017-Feb-16 04:29N 60°08' E 028°33'4 3.9
2017-Feb-16 03:33N 60°06' E 028°27'8 7.6
2017-Feb-16 02:33N 60°10' E 028°40'1 0.6
2017-Feb-16 01:33N 60°10' E 028°42'5 4.8
2017-Feb-16 00:33N 60°08' E 028°33'3 3.4
2017-Feb-15 23:33N 60°11' E 028°37'0 0.1
2017-Feb-15 22:33N 60°11' E 028°37'0 0.1
2017-Feb-15 21:33N 60°11' E 028°37'0 0.1
2017-Feb-15 20:33N 60°10' E 028°37'0 0.1
2017-Feb-15 19:33N 60°10' E 028°38'0 0.1
2017-Feb-15 18:33N 60°10' E 028°38'0 0.1
2017-Feb-15 17:30N 60°10' E 028°38'0 0.1
2017-Feb-15 15:32N 60°10' E 028°38'0 0.1
2017-Feb-15 14:32N 60°10' E 028°38'0 0.1
2017-Feb-15 13:08N 60°10' E 028°38'0 0.0
2017-Feb-15 12:28N 60°10' E 028°38'0 0.0
2017-Feb-14 22:09N 60°10' E 028°39'2 3.3
2017-Feb-14 21:33N 60°10' E 028°42'4 3.9
2017-Feb-14 20:33N 60°09' E 028°36'2 2.3
2017-Feb-14 19:33N 60°10' E 028°39'0 0.0
2017-Feb-14 18:33N 60°10' E 028°39'0 0.0
2017-Feb-14 17:33N 60°10' E 028°39'0 0.0
2017-Feb-14 16:33N 60°10' E 028°39'0 0.0
2017-Feb-14 15:33N 60°10' E 028°39'4 4.4
2017-Feb-14 14:33N 60°08' E 028°31'8 6.8
2017-Feb-14 13:19N 60°13' E 028°46'5 6.4
2017-Feb-14 12:33N 60°17' E 028°45'0 0.0
2017-Feb-14 04:33N 60°17' E 028°45'9 9.1
2017-Feb-14 03:33N 60°10' E 028°36'7 7.2
2017-Feb-14 02:33N 60°07' E 028°22'8 8.0
2017-Feb-14 01:33N 60°10' E 028°38'6 5.9
2017-Feb-14 00:33N 60°14' E 028°46'1 1.4
2017-Feb-13 23:33N 60°15' E 028°47'13 6.4
2017-Feb-13 21:33N 60°08' E 028°26'3 2.7
2017-Feb-13 20:33N 60°09' E 028°31'6 5.8
2017-Feb-13 19:33N 60°11' E 028°42'7 7.2
2017-Feb-13 18:33N 60°18' E 028°44'7 6.4
2017-Feb-13 17:29N 60°11' E 028°43'1 1.5
2017-Feb-13 16:33N 60°10' E 028°41'6 5.7
2017-Feb-13 15:32N 60°15' E 028°47'3 3.5
2017-Feb-13 14:33N 60°18' E 028°44'7 7.3
2017-Feb-13 13:32N 60°11' E 028°44'6 6.2
2017-Feb-13 12:33N 60°09' E 028°32'1010.1
2017-Feb-13 11:33N 60°08' E 028°12'1010.5
2017-Feb-13 10:33N 60°09' E 028°33'5 5.3
2017-Feb-13 09:33N 60°11' E 028°43'8 7.4
2017-Feb-13 08:32N 60°18' E 028°44'2 1.9
2017-Feb-13 07:33N 60°17' E 028°46'2 0.4
2017-Feb-13 03:32N 60°18' E 028°44'9 9.1
2017-Feb-13 02:33N 60°10' E 028°38'1211.9
2017-Feb-13 01:33N 60°08' E 028°14'9 9.1
2017-Feb-13 00:33N 60°10' E 027°57'0 0.4
2017-Feb-12 23:33N 60°10' E 027°57'6 5.9
2017-Feb-12 22:33N 60°09' E 028°09'7 7.3
2017-Feb-12 21:33N 60°06' E 028°22'4 4.5
2017-Feb-12 20:34N 60°08' E 028°15'8 8.5
2017-Feb-12 19:34N 60°08' E 028°32'8 7.7
2017-Feb-12 18:33N 60°12' E 028°45'7 7.4
2017-Feb-12 17:33N 60°09' E 028°32'8 8.5
2017-Feb-12 16:33N 60°07' E 028°16'1515.2
2017-Feb-12 15:33N 60°11' E 028°45'0 0.3
2017-Feb-12 14:30N 60°11' E 028°44'0 0.2
2017-Feb-12 13:33N 60°11' E 028°44'0 0.2
2017-Feb-12 12:34N 60°11' E 028°44'0 0.5
2017-Feb-12 11:31N 60°11' E 028°44'1010.7
2017-Feb-12 10:33N 60°08' E 028°25'4 3.9
2017-Feb-12 09:33N 60°09' E 028°17'0 0.1
2017-Feb-12 08:28N 60°09' E 028°17'0 0.1
2017-Feb-12 07:31N 60°09' E 028°17'2 2.5
2017-Feb-12 06:33N 60°07' E 028°20'10 9.6
2017-Feb-12 05:33N 60°10' E 028°39'3 2.6
2017-Feb-12 04:33N 60°11' E 028°43'2 1.6
2017-Feb-12 03:33N 60°10' E 028°41'8 7.8
2017-Feb-12 02:33N 60°08' E 028°26'8 7.8
2017-Feb-12 01:33N 60°09' E 028°10'9 8.7
2017-Feb-12 00:33N 60°08' E 028°27'7 7.3
2017-Feb-11 23:33N 60°10' E 028°41'10 9.8
2017-Feb-11 22:33N 60°08' E 028°22'1 0.7
2017-Feb-11 21:33N 60°07' E 028°21'4 4.5
2017-Feb-11 20:33N 60°09' E 028°30'4 3.7
2017-Feb-11 19:33N 60°09' E 028°37'4 4.0
2017-Feb-11 18:33N 60°11' E 028°44'7 7.3
2017-Feb-11 17:34N 60°09' E 028°30'6 6.4
2017-Feb-11 16:33N 60°08' E 028°17'1211.7
2017-Feb-11 15:33N 60°09' E 028°40'3 3.5
2017-Feb-11 14:33N 60°10' E 028°47'0 0.4
2017-Feb-11 13:27N 60°11' E 028°46'0 0.4
2017-Feb-11 12:32N 60°11' E 028°45'0 0.3
2017-Feb-11 11:32N 60°11' E 028°45'4 4.2
2017-Feb-11 10:33N 60°10' E 028°37'1110.8
2017-Feb-11 09:33N 60°07' E 028°16'1110.7
2017-Feb-11 08:33N 60°10' E 028°37'4 4.0
2017-Feb-11 07:33N 60°11' E 028°45'0 0.0
2017-Feb-11 06:33N 60°11' E 028°45'0 0.0
2017-Feb-11 05:33N 60°11' E 028°45'0 0.0
2017-Feb-11 04:33N 60°11' E 028°45'0 0.0
2017-Feb-11 03:33N 60°11' E 028°45'0 0.0
2017-Feb-11 02:33N 60°11' E 028°45'0 0.0
2017-Feb-11 01:32N 60°11' E 028°45'0 0.0
2017-Feb-11 00:33N 60°11' E 028°45'0 0.0
2017-Feb-10 23:33N 60°11' E 028°45'0 0.0
2017-Feb-10 22:33N 60°11' E 028°45'0 0.0
2017-Feb-10 21:30N 60°11' E 028°45'0 0.0
2017-Feb-10 20:30N 60°11' E 028°45'0 0.0
2017-Feb-10 19:33N 60°11' E 028°45'0 0.0
2017-Feb-10 18:33N 60°11' E 028°45'1 1.4
2017-Feb-10 17:33N 60°11' E 028°42'6 6.5
2017-Feb-10 16:33N 60°09' E 028°29'1 1.1
2017-Feb-10 15:33N 60°08' E 028°27'8 7.8
2017-Feb-10 14:33N 60°11' E 028°42'0 0.1
2017-Feb-10 13:33N 60°11' E 028°42'  

Dump ship's entire track history